sensor_id;sensor_type;location;lat;lon;timestamp;P1;durP1;ratioP1;P2;durP2;ratioP2
35975;SDS011;22055;0.000;0.000;2022-12-22T00:01:49;9.60;;;1.83;;
35975;SDS011;22055;0.000;0.000;2022-12-22T00:04:34;7.45;;;1.63;;
35975;SDS011;22055;0.000;0.000;2022-12-22T00:07:19;6.28;;;1.70;;
35975;SDS011;22055;0.000;0.000;2022-12-22T00:10:04;5.22;;;2.05;;
35975;SDS011;22055;0.000;0.000;2022-12-22T00:12:49;6.70;;;1.70;;
35975;SDS011;22055;0.000;0.000;2022-12-22T00:15:34;11.02;;;1.90;;
35975;SDS011;22055;0.000;0.000;2022-12-22T00:18:19;6.20;;;1.63;;
35975;SDS011;22055;0.000;0.000;2022-12-22T00:21:04;5.45;;;1.23;;
35975;SDS011;22055;0.000;0.000;2022-12-22T00:23:48;5.65;;;1.40;;
35975;SDS011;22055;0.000;0.000;2022-12-22T00:26:33;4.88;;;1.48;;
35975;SDS011;22055;0.000;0.000;2022-12-22T00:29:18;8.93;;;1.80;;
35975;SDS011;22055;0.000;0.000;2022-12-22T00:32:04;4.93;;;1.25;;
35975;SDS011;22055;0.000;0.000;2022-12-22T00:34:49;7.80;;;1.80;;
35975;SDS011;22055;0.000;0.000;2022-12-22T00:37:35;5.20;;;1.52;;
35975;SDS011;22055;0.000;0.000;2022-12-22T00:40:21;7.70;;;1.48;;
35975;SDS011;22055;0.000;0.000;2022-12-22T00:43:06;5.47;;;1.42;;
35975;SDS011;22055;0.000;0.000;2022-12-22T00:45:50;8.02;;;1.73;;
35975;SDS011;22055;0.000;0.000;2022-12-22T00:48:35;8.13;;;1.60;;
35975;SDS011;22055;0.000;0.000;2022-12-22T00:51:21;3.22;;;1.20;;
35975;SDS011;22055;0.000;0.000;2022-12-22T00:54:09;6.07;;;1.50;;
35975;SDS011;22055;0.000;0.000;2022-12-22T00:56:54;5.25;;;1.30;;
35975;SDS011;22055;0.000;0.000;2022-12-22T00:59:39;4.78;;;1.50;;
35975;SDS011;22055;0.000;0.000;2022-12-22T01:02:24;4.07;;;1.33;;
35975;SDS011;22055;0.000;0.000;2022-12-22T01:05:09;3.33;;;1.42;;
35975;SDS011;22055;0.000;0.000;2022-12-22T01:07:53;7.35;;;1.30;;
35975;SDS011;22055;0.000;0.000;2022-12-22T01:10:38;4.53;;;1.42;;
35975;SDS011;22055;0.000;0.000;2022-12-22T01:13:24;5.72;;;1.60;;
35975;SDS011;22055;0.000;0.000;2022-12-22T01:16:10;4.78;;;1.40;;
35975;SDS011;22055;0.000;0.000;2022-12-22T01:18:55;3.55;;;1.30;;
35975;SDS011;22055;0.000;0.000;2022-12-22T01:21:40;3.97;;;1.30;;
35975;SDS011;22055;0.000;0.000;2022-12-22T01:24:25;3.13;;;1.10;;
35975;SDS011;22055;0.000;0.000;2022-12-22T01:27:10;4.00;;;1.42;;
35975;SDS011;22055;0.000;0.000;2022-12-22T01:29:55;6.13;;;1.55;;
35975;SDS011;22055;0.000;0.000;2022-12-22T01:32:39;4.47;;;2.08;;
35975;SDS011;22055;0.000;0.000;2022-12-22T01:35:26;2.70;;;1.38;;
35975;SDS011;22055;0.000;0.000;2022-12-22T01:38:11;5.15;;;1.58;;
35975;SDS011;22055;0.000;0.000;2022-12-22T01:40:56;2.22;;;1.30;;
35975;SDS011;22055;0.000;0.000;2022-12-22T01:43:42;2.35;;;1.10;;
35975;SDS011;22055;0.000;0.000;2022-12-22T01:46:39;3.55;;;1.40;;
35975;SDS011;22055;0.000;0.000;2022-12-22T01:49:37;2.50;;;1.00;;
35975;SDS011;22055;0.000;0.000;2022-12-22T01:52:24;2.45;;;1.13;;
35975;SDS011;22055;0.000;0.000;2022-12-22T01:55:10;4.80;;;1.65;;
35975;SDS011;22055;0.000;0.000;2022-12-22T01:57:57;2.72;;;1.48;;
35975;SDS011;22055;0.000;0.000;2022-12-22T02:00:41;2.03;;;0.98;;
35975;SDS011;22055;0.000;0.000;2022-12-22T02:03:26;2.95;;;1.23;;
35975;SDS011;22055;0.000;0.000;2022-12-22T02:06:30;2.35;;;1.10;;
35975;SDS011;22055;0.000;0.000;2022-12-22T02:14:59;2.45;;;0.93;;
35975;SDS011;22055;0.000;0.000;2022-12-22T02:18:06;3.83;;;1.13;;
35975;SDS011;22055;0.000;0.000;2022-12-22T02:20:59;2.47;;;1.20;;
35975;SDS011;22055;0.000;0.000;2022-12-22T02:26:49;4.10;;;1.25;;
35975;SDS011;22055;0.000;0.000;2022-12-22T02:29:36;4.85;;;1.23;;
35975;SDS011;22055;0.000;0.000;2022-12-22T02:32:23;4.63;;;1.08;;
35975;SDS011;22055;0.000;0.000;2022-12-22T02:35:11;4.22;;;1.20;;
35975;SDS011;22055;0.000;0.000;2022-12-22T02:37:58;2.20;;;1.42;;
35975;SDS011;22055;0.000;0.000;2022-12-22T02:47:03;2.20;;;0.90;;
35975;SDS011;22055;0.000;0.000;2022-12-22T02:49:51;3.00;;;1.17;;
35975;SDS011;22055;0.000;0.000;2022-12-22T02:52:36;1.27;;;1.02;;
35975;SDS011;22055;0.000;0.000;2022-12-22T02:55:23;1.80;;;1.10;;
35975;SDS011;22055;0.000;0.000;2022-12-22T02:58:10;1.83;;;0.85;;
35975;SDS011;22055;0.000;0.000;2022-12-22T03:00:55;1.83;;;0.90;;
35975;SDS011;22055;0.000;0.000;2022-12-22T03:03:40;2.17;;;1.02;;
35975;SDS011;22055;0.000;0.000;2022-12-22T03:06:24;1.73;;;1.08;;
35975;SDS011;22055;0.000;0.000;2022-12-22T03:09:09;2.30;;;1.00;;
35975;SDS011;22055;0.000;0.000;2022-12-22T03:11:54;1.98;;;1.05;;
35975;SDS011;22055;0.000;0.000;2022-12-22T03:14:39;2.28;;;1.00;;
35975;SDS011;22055;0.000;0.000;2022-12-22T03:17:23;1.23;;;0.98;;
35975;SDS011;22055;0.000;0.000;2022-12-22T03:20:08;0.93;;;0.88;;
35975;SDS011;22055;0.000;0.000;2022-12-22T03:22:53;1.63;;;0.90;;
35975;SDS011;22055;0.000;0.000;2022-12-22T03:25:38;3.60;;;1.00;;
35975;SDS011;22055;0.000;0.000;2022-12-22T03:28:23;2.72;;;0.93;;
35975;SDS011;22055;0.000;0.000;2022-12-22T03:30:54;3.83;;;1.15;;
35975;SDS011;22055;0.000;0.000;2022-12-22T03:33:21;1.77;;;0.80;;
35975;SDS011;22055;0.000;0.000;2022-12-22T03:35:47;2.90;;;1.30;;
35975;SDS011;22055;0.000;0.000;2022-12-22T03:38:13;2.35;;;0.90;;
35975;SDS011;22055;0.000;0.000;2022-12-22T03:40:39;2.70;;;1.17;;
35975;SDS011;22055;0.000;0.000;2022-12-22T03:43:05;1.40;;;0.80;;
35975;SDS011;22055;0.000;0.000;2022-12-22T03:45:55;1.88;;;0.88;;
35975;SDS011;22055;0.000;0.000;2022-12-22T03:48:55;1.42;;;1.00;;
35975;SDS011;22055;0.000;0.000;2022-12-22T03:51:55;0.75;;;0.75;;
35975;SDS011;22055;0.000;0.000;2022-12-22T03:54:22;1.00;;;0.90;;
35975;SDS011;22055;0.000;0.000;2022-12-22T03:56:49;1.02;;;0.90;;
35975;SDS011;22055;0.000;0.000;2022-12-22T03:59:15;1.33;;;1.00;;
35975;SDS011;22055;0.000;0.000;2022-12-22T04:01:42;2.10;;;0.95;;
35975;SDS011;22055;0.000;0.000;2022-12-22T04:04:09;2.88;;;1.00;;
35975;SDS011;22055;0.000;0.000;2022-12-22T04:06:35;1.67;;;1.15;;
35975;SDS011;22055;0.000;0.000;2022-12-22T04:09:02;4.32;;;0.98;;
35975;SDS011;22055;0.000;0.000;2022-12-22T04:11:28;1.38;;;0.93;;
35975;SDS011;22055;0.000;0.000;2022-12-22T04:14:13;1.65;;;1.10;;
35975;SDS011;22055;0.000;0.000;2022-12-22T04:16:39;2.28;;;1.10;;
35975;SDS011;22055;0.000;0.000;2022-12-22T04:19:05;1.35;;;0.80;;
35975;SDS011;22055;0.000;0.000;2022-12-22T04:21:32;2.63;;;1.00;;
35975;SDS011;22055;0.000;0.000;2022-12-22T04:23:59;3.05;;;0.90;;
35975;SDS011;22055;0.000;0.000;2022-12-22T04:26:25;3.95;;;1.08;;
35975;SDS011;22055;0.000;0.000;2022-12-22T04:28:52;1.80;;;1.10;;
35975;SDS011;22055;0.000;0.000;2022-12-22T04:31:19;2.00;;;1.08;;
35975;SDS011;22055;0.000;0.000;2022-12-22T04:33:45;1.42;;;1.00;;
35975;SDS011;22055;0.000;0.000;2022-12-22T04:36:11;1.63;;;1.10;;
35975;SDS011;22055;0.000;0.000;2022-12-22T04:38:38;1.63;;;1.00;;
35975;SDS011;22055;0.000;0.000;2022-12-22T04:41:05;1.52;;;1.13;;
35975;SDS011;22055;0.000;0.000;2022-12-22T04:43:31;3.38;;;0.82;;
35975;SDS011;22055;0.000;0.000;2022-12-22T04:45:57;1.52;;;1.00;;
35975;SDS011;22055;0.000;0.000;2022-12-22T04:48:24;1.67;;;1.13;;
35975;SDS011;22055;0.000;0.000;2022-12-22T04:50:51;1.52;;;0.90;;
35975;SDS011;22055;0.000;0.000;2022-12-22T04:53:18;3.95;;;1.13;;
35975;SDS011;22055;0.000;0.000;2022-12-22T04:55:47;1.65;;;0.73;;
35975;SDS011;22055;0.000;0.000;2022-12-22T04:58:14;1.60;;;0.73;;
35975;SDS011;22055;0.000;0.000;2022-12-22T05:00:40;1.33;;;0.60;;
35975;SDS011;22055;0.000;0.000;2022-12-22T05:03:07;2.10;;;0.95;;
35975;SDS011;22055;0.000;0.000;2022-12-22T05:05:33;0.80;;;0.80;;
35975;SDS011;22055;0.000;0.000;2022-12-22T05:08:00;8.75;;;1.58;;
35975;SDS011;22055;0.000;0.000;2022-12-22T05:10:26;7.28;;;1.13;;
35975;SDS011;22055;0.000;0.000;2022-12-22T05:12:53;6.47;;;1.25;;
35975;SDS011;22055;0.000;0.000;2022-12-22T05:15:19;6.30;;;1.60;;
35975;SDS011;22055;0.000;0.000;2022-12-22T05:17:46;3.00;;;1.30;;
35975;SDS011;22055;0.000;0.000;2022-12-22T05:20:12;11.65;;;1.98;;
35975;SDS011;22055;0.000;0.000;2022-12-22T05:22:38;2.63;;;1.05;;
35975;SDS011;22055;0.000;0.000;2022-12-22T05:25:04;9.32;;;1.75;;
35975;SDS011;22055;0.000;0.000;2022-12-22T05:27:31;6.22;;;1.70;;
35975;SDS011;22055;0.000;0.000;2022-12-22T05:29:57;14.68;;;1.60;;
35975;SDS011;22055;0.000;0.000;2022-12-22T05:32:23;11.40;;;2.10;;
35975;SDS011;22055;0.000;0.000;2022-12-22T05:34:49;10.23;;;2.33;;
35975;SDS011;22055;0.000;0.000;2022-12-22T05:37:15;10.90;;;2.03;;
35975;SDS011;22055;0.000;0.000;2022-12-22T05:39:41;14.80;;;2.00;;
35975;SDS011;22055;0.000;0.000;2022-12-22T05:42:08;10.05;;;1.52;;
35975;SDS011;22055;0.000;0.000;2022-12-22T05:44:34;9.52;;;1.42;;
35975;SDS011;22055;0.000;0.000;2022-12-22T05:47:00;15.02;;;1.77;;
35975;SDS011;22055;0.000;0.000;2022-12-22T05:49:26;24.92;;;3.72;;
35975;SDS011;22055;0.000;0.000;2022-12-22T05:51:52;20.58;;;2.00;;
35975;SDS011;22055;0.000;0.000;2022-12-22T05:54:19;11.95;;;2.05;;
35975;SDS011;22055;0.000;0.000;2022-12-22T05:56:46;14.48;;;2.00;;
35975;SDS011;22055;0.000;0.000;2022-12-22T05:59:12;18.95;;;2.78;;
35975;SDS011;22055;0.000;0.000;2022-12-22T06:04:14;25.98;;;3.30;;
35975;SDS011;22055;0.000;0.000;2022-12-22T06:06:40;20.70;;;2.83;;
35975;SDS011;22055;0.000;0.000;2022-12-22T06:09:06;27.65;;;3.10;;
35975;SDS011;22055;0.000;0.000;2022-12-22T06:11:33;14.90;;;2.08;;
35975;SDS011;22055;0.000;0.000;2022-12-22T06:14:00;16.40;;;2.30;;
35975;SDS011;22055;0.000;0.000;2022-12-22T06:22:42;16.88;;;2.03;;
35975;SDS011;22055;0.000;0.000;2022-12-22T06:25:12;10.98;;;1.83;;
35975;SDS011;22055;0.000;0.000;2022-12-22T06:27:48;10.32;;;2.03;;
35975;SDS011;22055;0.000;0.000;2022-12-22T06:33:11;33.40;;;3.45;;
35975;SDS011;22055;0.000;0.000;2022-12-22T06:36:02;25.98;;;3.53;;
35975;SDS011;22055;0.000;0.000;2022-12-22T06:38:36;10.45;;;2.03;;
35975;SDS011;22055;0.000;0.000;2022-12-22T06:41:06;19.75;;;2.92;;
35975;SDS011;22055;0.000;0.000;2022-12-22T06:43:36;16.42;;;2.20;;
35975;SDS011;22055;0.000;0.000;2022-12-22T06:46:06;9.20;;;2.47;;
35975;SDS011;22055;0.000;0.000;2022-12-22T06:48:40;19.55;;;2.35;;
35975;SDS011;22055;0.000;0.000;2022-12-22T06:51:09;26.42;;;3.10;;
35975;SDS011;22055;0.000;0.000;2022-12-22T06:53:43;23.33;;;2.70;;
35975;SDS011;22055;0.000;0.000;2022-12-22T06:56:14;18.08;;;2.88;;
35975;SDS011;22055;0.000;0.000;2022-12-22T06:58:58;32.50;;;3.08;;
35975;SDS011;22055;0.000;0.000;2022-12-22T07:01:29;20.73;;;2.67;;
35975;SDS011;22055;0.000;0.000;2022-12-22T07:03:58;22.73;;;2.88;;
35975;SDS011;22055;0.000;0.000;2022-12-22T07:06:28;21.30;;;2.92;;
35975;SDS011;22055;0.000;0.000;2022-12-22T07:08:59;17.42;;;2.60;;
35975;SDS011;22055;0.000;0.000;2022-12-22T07:11:34;18.63;;;3.30;;
35975;SDS011;22055;0.000;0.000;2022-12-22T07:14:03;16.48;;;2.20;;
35975;SDS011;22055;0.000;0.000;2022-12-22T07:16:38;12.75;;;2.63;;
35975;SDS011;22055;0.000;0.000;2022-12-22T07:19:31;13.05;;;2.42;;
35975;SDS011;22055;0.000;0.000;2022-12-22T07:25:16;13.15;;;2.97;;
35975;SDS011;22055;0.000;0.000;2022-12-22T07:27:51;6.55;;;1.83;;
35975;SDS011;22055;0.000;0.000;2022-12-22T07:30:24;11.93;;;1.90;;
35975;SDS011;22055;0.000;0.000;2022-12-22T07:33:02;6.82;;;1.83;;
35975;SDS011;22055;0.000;0.000;2022-12-22T07:36:01;7.50;;;2.25;;
35975;SDS011;22055;0.000;0.000;2022-12-22T07:38:42;9.57;;;2.13;;
35975;SDS011;22055;0.000;0.000;2022-12-22T07:41:16;20.30;;;2.42;;
35975;SDS011;22055;0.000;0.000;2022-12-22T07:44:07;10.15;;;1.77;;
35975;SDS011;22055;0.000;0.000;2022-12-22T07:46:37;18.63;;;2.08;;
35975;SDS011;22055;0.000;0.000;2022-12-22T07:49:17;15.25;;;2.50;;
35975;SDS011;22055;0.000;0.000;2022-12-22T07:52:07;13.52;;;2.28;;
35975;SDS011;22055;0.000;0.000;2022-12-22T07:54:49;12.82;;;2.17;;
35975;SDS011;22055;0.000;0.000;2022-12-22T07:57:25;14.25;;;2.22;;
35975;SDS011;22055;0.000;0.000;2022-12-22T07:59:57;13.48;;;2.15;;
35975;SDS011;22055;0.000;0.000;2022-12-22T08:02:31;9.93;;;1.95;;
35975;SDS011;22055;0.000;0.000;2022-12-22T08:04:59;11.25;;;2.03;;
35975;SDS011;22055;0.000;0.000;2022-12-22T08:07:28;30.45;;;3.45;;
35975;SDS011;22055;0.000;0.000;2022-12-22T08:10:07;17.40;;;2.90;;
35975;SDS011;22055;0.000;0.000;2022-12-22T08:12:50;19.50;;;2.55;;
35975;SDS011;22055;0.000;0.000;2022-12-22T08:15:23;26.73;;;3.53;;
35975;SDS011;22055;0.000;0.000;2022-12-22T08:18:00;19.83;;;2.45;;
35975;SDS011;22055;0.000;0.000;2022-12-22T08:20:37;13.15;;;2.22;;
35975;SDS011;22055;0.000;0.000;2022-12-22T08:23:10;18.42;;;2.83;;
35975;SDS011;22055;0.000;0.000;2022-12-22T08:26:21;18.58;;;2.70;;
35975;SDS011;22055;0.000;0.000;2022-12-22T08:31:37;10.70;;;2.22;;
35975;SDS011;22055;0.000;0.000;2022-12-22T08:34:09;9.97;;;2.67;;
35975;SDS011;22055;0.000;0.000;2022-12-22T08:36:59;13.68;;;2.17;;
35975;SDS011;22055;0.000;0.000;2022-12-22T08:39:34;8.20;;;2.17;;
35975;SDS011;22055;0.000;0.000;2022-12-22T08:42:17;19.13;;;2.65;;
35975;SDS011;22055;0.000;0.000;2022-12-22T08:45:07;13.60;;;2.63;;
35975;SDS011;22055;0.000;0.000;2022-12-22T08:47:37;17.85;;;3.08;;
35975;SDS011;22055;0.000;0.000;2022-12-22T08:50:05;14.43;;;3.15;;
35975;SDS011;22055;0.000;0.000;2022-12-22T08:52:32;18.17;;;2.45;;
35975;SDS011;22055;0.000;0.000;2022-12-22T08:55:00;20.00;;;2.90;;
35975;SDS011;22055;0.000;0.000;2022-12-22T08:57:29;18.75;;;2.65;;
35975;SDS011;22055;0.000;0.000;2022-12-22T09:00:05;20.80;;;3.38;;
35975;SDS011;22055;0.000;0.000;2022-12-22T09:02:42;19.08;;;2.65;;
35975;SDS011;22055;0.000;0.000;2022-12-22T09:05:11;22.08;;;3.20;;
35975;SDS011;22055;0.000;0.000;2022-12-22T09:07:43;13.68;;;3.08;;
35975;SDS011;22055;0.000;0.000;2022-12-22T09:10:33;12.07;;;2.65;;
35975;SDS011;22055;0.000;0.000;2022-12-22T09:13:13;14.75;;;2.50;;
35975;SDS011;22055;0.000;0.000;2022-12-22T09:15:47;9.32;;;2.63;;
35975;SDS011;22055;0.000;0.000;2022-12-22T09:18:19;24.30;;;2.90;;
35975;SDS011;22055;0.000;0.000;2022-12-22T09:20:59;16.00;;;2.88;;
35975;SDS011;22055;0.000;0.000;2022-12-22T09:23:48;20.20;;;3.53;;
35975;SDS011;22055;0.000;0.000;2022-12-22T09:26:30;18.52;;;3.38;;
35975;SDS011;22055;0.000;0.000;2022-12-22T09:29:14;23.58;;;2.67;;
35975;SDS011;22055;0.000;0.000;2022-12-22T09:31:49;17.17;;;3.80;;
35975;SDS011;22055;0.000;0.000;2022-12-22T09:37:39;14.65;;;2.80;;
35975;SDS011;22055;0.000;0.000;2022-12-22T09:40:37;15.55;;;3.05;;
35975;SDS011;22055;0.000;0.000;2022-12-22T09:48:47;13.60;;;2.83;;
35975;SDS011;22055;0.000;0.000;2022-12-22T09:51:24;22.27;;;3.22;;
35975;SDS011;22055;0.000;0.000;2022-12-22T09:54:07;16.33;;;2.33;;
35975;SDS011;22055;0.000;0.000;2022-12-22T09:56:44;9.57;;;2.13;;
35975;SDS011;22055;0.000;0.000;2022-12-22T09:59:17;17.48;;;2.65;;
35975;SDS011;22055;0.000;0.000;2022-12-22T10:13:26;10.85;;;2.50;;
35975;SDS011;22055;0.000;0.000;2022-12-22T10:15:58;11.82;;;2.42;;
35975;SDS011;22055;0.000;0.000;2022-12-22T10:18:38;10.07;;;1.90;;
35975;SDS011;22055;0.000;0.000;2022-12-22T10:21:31;10.63;;;2.45;;
35975;SDS011;22055;0.000;0.000;2022-12-22T10:24:25;6.50;;;1.92;;
35975;SDS011;22055;0.000;0.000;2022-12-22T10:27:02;11.43;;;2.05;;
35975;SDS011;22055;0.000;0.000;2022-12-22T10:29:38;7.93;;;2.00;;
35975;SDS011;22055;0.000;0.000;2022-12-22T10:32:37;4.28;;;1.70;;
35975;SDS011;22055;0.000;0.000;2022-12-22T10:44:50;23.98;;;3.70;;
35975;SDS011;22055;0.000;0.000;2022-12-22T11:21:41;28.23;;;5.03;;
35975;SDS011;22055;0.000;0.000;2022-12-22T11:38:18;18.13;;;4.25;;
35975;SDS011;22055;0.000;0.000;2022-12-22T11:47:26;19.48;;;4.85;;
35975;SDS011;22055;0.000;0.000;2022-12-22T12:12:55;10.52;;;2.80;;
35975;SDS011;22055;0.000;0.000;2022-12-22T12:15:37;12.32;;;2.90;;
35975;SDS011;22055;0.000;0.000;2022-12-22T12:29:34;20.35;;;3.88;;
35975;SDS011;22055;0.000;0.000;2022-12-22T12:32:27;13.45;;;3.53;;
35975;SDS011;22055;0.000;0.000;2022-12-22T12:35:56;14.60;;;3.90;;
35975;SDS011;22055;0.000;0.000;2022-12-22T12:54:32;14.48;;;3.53;;
35975;SDS011;22055;0.000;0.000;2022-12-22T13:00:18;29.90;;;4.45;;
35975;SDS011;22055;0.000;0.000;2022-12-22T13:03:35;28.83;;;4.18;;
35975;SDS011;22055;0.000;0.000;2022-12-22T13:17:50;20.15;;;3.58;;
35975;SDS011;22055;0.000;0.000;2022-12-22T13:20:35;23.35;;;3.90;;
35975;SDS011;22055;0.000;0.000;2022-12-22T13:23:15;23.10;;;3.20;;
35975;SDS011;22055;0.000;0.000;2022-12-22T13:26:16;13.25;;;3.40;;
35975;SDS011;22055;0.000;0.000;2022-12-22T13:29:38;20.65;;;4.25;;
35975;SDS011;22055;0.000;0.000;2022-12-22T13:34:59;18.92;;;3.42;;
35975;SDS011;22055;0.000;0.000;2022-12-22T13:37:28;14.70;;;3.08;;
35975;SDS011;22055;0.000;0.000;2022-12-22T13:40:27;31.25;;;5.03;;
35975;SDS011;22055;0.000;0.000;2022-12-22T13:43:10;30.23;;;4.43;;
35975;SDS011;22055;0.000;0.000;2022-12-22T13:51:26;21.83;;;3.65;;
35975;SDS011;22055;0.000;0.000;2022-12-22T13:54:22;15.57;;;2.92;;
35975;SDS011;22055;0.000;0.000;2022-12-22T13:56:53;69.03;;;7.40;;
35975;SDS011;22055;0.000;0.000;2022-12-22T13:59:32;21.17;;;3.28;;
35975;SDS011;22055;0.000;0.000;2022-12-22T14:02:17;60.97;;;6.85;;
35975;SDS011;22055;0.000;0.000;2022-12-22T14:05:11;56.22;;;5.97;;
35975;SDS011;22055;0.000;0.000;2022-12-22T14:08:02;41.15;;;6.35;;
35975;SDS011;22055;0.000;0.000;2022-12-22T14:13:31;35.95;;;4.45;;
35975;SDS011;22055;0.000;0.000;2022-12-22T14:16:02;28.92;;;4.05;;
35975;SDS011;22055;0.000;0.000;2022-12-22T14:18:36;26.40;;;4.18;;
35975;SDS011;22055;0.000;0.000;2022-12-22T14:21:11;20.27;;;3.70;;
35975;SDS011;22055;0.000;0.000;2022-12-22T14:23:39;18.33;;;3.92;;
35975;SDS011;22055;0.000;0.000;2022-12-22T14:29:05;29.40;;;4.88;;
35975;SDS011;22055;0.000;0.000;2022-12-22T14:31:57;20.00;;;3.78;;
35975;SDS011;22055;0.000;0.000;2022-12-22T14:34:52;27.95;;;3.45;;
35975;SDS011;22055;0.000;0.000;2022-12-22T14:37:31;33.78;;;4.63;;
35975;SDS011;22055;0.000;0.000;2022-12-22T14:40:02;40.63;;;5.20;;
35975;SDS011;22055;0.000;0.000;2022-12-22T14:42:51;18.42;;;3.00;;
35975;SDS011;22055;0.000;0.000;2022-12-22T14:45:50;26.13;;;3.40;;
35975;SDS011;22055;0.000;0.000;2022-12-22T14:48:26;19.75;;;3.95;;
35975;SDS011;22055;0.000;0.000;2022-12-22T14:54:29;20.73;;;3.80;;
35975;SDS011;22055;0.000;0.000;2022-12-22T14:57:08;15.40;;;3.30;;
35975;SDS011;22055;0.000;0.000;2022-12-22T15:00:24;10.20;;;2.67;;
35975;SDS011;22055;0.000;0.000;2022-12-22T15:02:48;13.48;;;3.05;;
35975;SDS011;22055;0.000;0.000;2022-12-22T15:05:47;16.17;;;2.97;;
35975;SDS011;22055;0.000;0.000;2022-12-22T15:11:04;13.27;;;3.20;;
35975;SDS011;22055;0.000;0.000;2022-12-22T15:13:37;20.20;;;2.92;;
35975;SDS011;22055;0.000;0.000;2022-12-22T15:16:25;20.95;;;2.78;;
35975;SDS011;22055;0.000;0.000;2022-12-22T15:18:53;22.20;;;3.05;;
35975;SDS011;22055;0.000;0.000;2022-12-22T15:21:23;10.07;;;2.33;;
35975;SDS011;22055;0.000;0.000;2022-12-22T15:23:58;17.52;;;2.35;;
35975;SDS011;22055;0.000;0.000;2022-12-22T15:26:49;14.20;;;2.90;;
35975;SDS011;22055;0.000;0.000;2022-12-22T15:29:20;13.73;;;2.45;;
35975;SDS011;22055;0.000;0.000;2022-12-22T15:32:11;11.63;;;2.55;;
35975;SDS011;22055;0.000;0.000;2022-12-22T15:34:54;8.55;;;2.40;;
35975;SDS011;22055;0.000;0.000;2022-12-22T15:37:36;9.60;;;2.15;;
35975;SDS011;22055;0.000;0.000;2022-12-22T15:40:18;19.48;;;2.80;;
35975;SDS011;22055;0.000;0.000;2022-12-22T15:42:48;13.63;;;2.85;;
35975;SDS011;22055;0.000;0.000;2022-12-22T15:45:19;11.82;;;2.85;;
35975;SDS011;22055;0.000;0.000;2022-12-22T15:47:56;13.63;;;2.53;;
35975;SDS011;22055;0.000;0.000;2022-12-22T15:50:34;14.52;;;2.72;;
35975;SDS011;22055;0.000;0.000;2022-12-22T15:53:04;32.30;;;3.70;;
35975;SDS011;22055;0.000;0.000;2022-12-22T15:55:41;22.75;;;3.80;;
35975;SDS011;22055;0.000;0.000;2022-12-22T15:58:22;21.80;;;3.25;;
35975;SDS011;22055;0.000;0.000;2022-12-22T16:00:52;21.42;;;2.67;;
35975;SDS011;22055;0.000;0.000;2022-12-22T16:03:26;8.35;;;2.13;;
35975;SDS011;22055;0.000;0.000;2022-12-22T16:05:59;14.38;;;2.97;;
35975;SDS011;22055;0.000;0.000;2022-12-22T16:08:29;12.10;;;2.65;;
35975;SDS011;22055;0.000;0.000;2022-12-22T16:11:05;10.88;;;2.15;;
35975;SDS011;22055;0.000;0.000;2022-12-22T16:13:35;13.40;;;2.60;;
35975;SDS011;22055;0.000;0.000;2022-12-22T16:16:09;12.07;;;2.17;;
35975;SDS011;22055;0.000;0.000;2022-12-22T16:18:45;11.18;;;2.58;;
35975;SDS011;22055;0.000;0.000;2022-12-22T16:21:17;8.90;;;2.30;;
35975;SDS011;22055;0.000;0.000;2022-12-22T16:23:57;9.77;;;2.58;;
35975;SDS011;22055;0.000;0.000;2022-12-22T16:26:28;10.15;;;3.45;;
35975;SDS011;22055;0.000;0.000;2022-12-22T16:28:56;8.98;;;2.10;;
35975;SDS011;22055;0.000;0.000;2022-12-22T16:31:30;13.00;;;2.22;;
35975;SDS011;22055;0.000;0.000;2022-12-22T16:33:59;10.68;;;2.03;;
35975;SDS011;22055;0.000;0.000;2022-12-22T16:36:35;7.97;;;2.45;;
35975;SDS011;22055;0.000;0.000;2022-12-22T16:39:04;11.85;;;2.42;;
35975;SDS011;22055;0.000;0.000;2022-12-22T16:41:36;13.75;;;2.13;;
35975;SDS011;22055;0.000;0.000;2022-12-22T16:44:18;13.38;;;2.47;;
35975;SDS011;22055;0.000;0.000;2022-12-22T16:46:52;11.88;;;2.10;;
35975;SDS011;22055;0.000;0.000;2022-12-22T16:52:39;13.13;;;2.40;;
35975;SDS011;22055;0.000;0.000;2022-12-22T16:55:20;8.55;;;2.00;;
35975;SDS011;22055;0.000;0.000;2022-12-22T16:58:08;13.85;;;2.47;;
35975;SDS011;22055;0.000;0.000;2022-12-22T17:00:50;11.52;;;2.40;;
35975;SDS011;22055;0.000;0.000;2022-12-22T17:03:23;20.65;;;2.22;;
35975;SDS011;22055;0.000;0.000;2022-12-22T17:05:53;13.00;;;2.90;;
35975;SDS011;22055;0.000;0.000;2022-12-22T17:08:26;14.43;;;3.00;;
35975;SDS011;22055;0.000;0.000;2022-12-22T17:10:57;17.08;;;2.97;;
35975;SDS011;22055;0.000;0.000;2022-12-22T17:13:28;7.47;;;2.33;;
35975;SDS011;22055;0.000;0.000;2022-12-22T17:15:56;9.52;;;2.25;;
35975;SDS011;22055;0.000;0.000;2022-12-22T17:18:26;16.70;;;2.45;;
35975;SDS011;22055;0.000;0.000;2022-12-22T17:21:02;13.73;;;2.70;;
35975;SDS011;22055;0.000;0.000;2022-12-22T17:23:45;14.55;;;2.40;;
35975;SDS011;22055;0.000;0.000;2022-12-22T17:26:39;13.52;;;2.55;;
35975;SDS011;22055;0.000;0.000;2022-12-22T17:29:13;16.52;;;2.58;;
35975;SDS011;22055;0.000;0.000;2022-12-22T17:32:00;17.27;;;3.17;;
35975;SDS011;22055;0.000;0.000;2022-12-22T17:34:30;11.75;;;3.00;;
35975;SDS011;22055;0.000;0.000;2022-12-22T17:37:11;11.67;;;2.17;;
35975;SDS011;22055;0.000;0.000;2022-12-22T17:39:51;12.63;;;2.83;;
35975;SDS011;22055;0.000;0.000;2022-12-22T17:42:29;12.52;;;2.58;;
35975;SDS011;22055;0.000;0.000;2022-12-22T17:45:00;13.45;;;3.17;;
35975;SDS011;22055;0.000;0.000;2022-12-22T17:47:28;11.55;;;2.28;;
35975;SDS011;22055;0.000;0.000;2022-12-22T17:49:57;9.90;;;2.30;;
35975;SDS011;22055;0.000;0.000;2022-12-22T17:52:26;13.38;;;2.22;;
35975;SDS011;22055;0.000;0.000;2022-12-22T17:54:57;16.10;;;2.90;;
35975;SDS011;22055;0.000;0.000;2022-12-22T17:57:28;14.68;;;2.45;;
35975;SDS011;22055;0.000;0.000;2022-12-22T17:59:57;23.75;;;3.05;;
35975;SDS011;22055;0.000;0.000;2022-12-22T18:02:27;20.30;;;2.65;;
35975;SDS011;22055;0.000;0.000;2022-12-22T18:04:56;9.68;;;2.25;;
35975;SDS011;22055;0.000;0.000;2022-12-22T18:07:26;14.88;;;2.60;;
35975;SDS011;22055;0.000;0.000;2022-12-22T18:09:58;10.90;;;2.30;;
35975;SDS011;22055;0.000;0.000;2022-12-22T18:12:30;23.52;;;2.55;;
35975;SDS011;22055;0.000;0.000;2022-12-22T18:15:12;19.00;;;2.92;;
35975;SDS011;22055;0.000;0.000;2022-12-22T18:17:58;17.98;;;3.58;;
35975;SDS011;22055;0.000;0.000;2022-12-22T18:20:26;22.55;;;3.75;;
35975;SDS011;22055;0.000;0.000;2022-12-22T18:22:55;19.05;;;3.05;;
35975;SDS011;22055;0.000;0.000;2022-12-22T18:25:32;17.13;;;2.70;;
35975;SDS011;22055;0.000;0.000;2022-12-22T18:28:00;27.38;;;4.10;;
35975;SDS011;22055;0.000;0.000;2022-12-22T18:30:29;14.98;;;3.45;;
35975;SDS011;22055;0.000;0.000;2022-12-22T18:33:00;19.25;;;2.95;;
35975;SDS011;22055;0.000;0.000;2022-12-22T18:35:31;24.10;;;2.65;;
35975;SDS011;22055;0.000;0.000;2022-12-22T18:38:01;21.67;;;3.28;;
35975;SDS011;22055;0.000;0.000;2022-12-22T18:40:37;12.82;;;2.50;;
35975;SDS011;22055;0.000;0.000;2022-12-22T18:43:10;16.42;;;3.05;;
35975;SDS011;22055;0.000;0.000;2022-12-22T18:45:40;15.32;;;2.90;;
35975;SDS011;22055;0.000;0.000;2022-12-22T18:48:12;21.67;;;3.40;;
35975;SDS011;22055;0.000;0.000;2022-12-22T18:50:45;15.75;;;2.67;;
35975;SDS011;22055;0.000;0.000;2022-12-22T18:53:26;17.13;;;2.70;;
35975;SDS011;22055;0.000;0.000;2022-12-22T18:55:58;17.40;;;2.90;;
35975;SDS011;22055;0.000;0.000;2022-12-22T18:58:32;12.60;;;2.50;;
35975;SDS011;22055;0.000;0.000;2022-12-22T19:01:03;11.50;;;2.42;;
35975;SDS011;22055;0.000;0.000;2022-12-22T19:03:51;15.07;;;2.67;;
35975;SDS011;22055;0.000;0.000;2022-12-22T19:06:26;10.35;;;2.97;;
35975;SDS011;22055;0.000;0.000;2022-12-22T19:08:58;15.65;;;3.17;;
35975;SDS011;22055;0.000;0.000;2022-12-22T19:11:28;14.88;;;2.95;;
35975;SDS011;22055;0.000;0.000;2022-12-22T19:14:01;12.48;;;2.80;;
35975;SDS011;22055;0.000;0.000;2022-12-22T19:16:35;12.20;;;2.60;;
35975;SDS011;22055;0.000;0.000;2022-12-22T19:19:14;10.90;;;2.65;;
35975;SDS011;22055;0.000;0.000;2022-12-22T19:21:55;12.65;;;2.92;;